createdAt,value
2018-04-27T00:00:13.416Z,57.65
2018-04-27T00:01:13.437Z,57.68
2018-04-27T00:02:13.456Z,57.85
2018-04-27T00:03:13.474Z,57.65
2018-04-27T00:04:13.494Z,58.23
2018-04-27T00:05:13.511Z,57.75
2018-04-27T00:06:13.543Z,57.94
2018-04-27T00:07:13.550Z,57.85
2018-04-27T00:08:13.568Z,58.04
2018-04-27T00:09:13.607Z,57.97
2018-04-27T00:10:13.609Z,57.65
2018-04-27T00:11:13.629Z,57.07
2018-04-27T00:12:13.645Z,58.04
2018-04-27T00:13:13.672Z,57.85
2018-04-27T00:14:13.687Z,57.65
2018-04-27T00:15:13.707Z,58.04
2018-04-27T00:16:13.723Z,57.85
2018-04-27T00:17:13.734Z,57.56
2018-04-27T00:18:13.762Z,57.39
2018-04-27T00:19:13.782Z,57.37
2018-04-27T00:20:13.806Z,57.65
2018-04-27T00:21:13.820Z,57.75
2018-04-27T00:22:13.838Z,57.68
2018-04-27T00:23:13.864Z,57.75
2018-04-27T00:24:13.873Z,57.94
2018-04-27T00:25:13.896Z,57.97
2018-04-27T00:26:13.922Z,57.94
2018-04-27T00:27:13.935Z,57.94
2018-04-27T00:28:13.953Z,57.65
2018-04-27T00:29:13.973Z,57.49
2018-04-27T00:30:13.992Z,57.65
2018-04-27T00:31:14.027Z,57.75
2018-04-27T00:32:14.032Z,57.75
2018-04-27T00:33:14.049Z,57.85
2018-04-27T00:34:14.146Z,57.85
2018-04-27T00:35:14.090Z,57.87
2018-04-27T00:36:14.111Z,57.68
2018-04-27T00:37:14.134Z,57.75
2018-04-27T00:38:14.150Z,57.75
2018-04-27T00:39:14.166Z,57.97
2018-04-27T00:40:14.187Z,57.94
2018-04-27T00:41:14.203Z,57.85
2018-04-27T00:42:14.246Z,57.94
2018-04-27T00:43:14.243Z,57.65
2018-04-27T00:44:14.261Z,57.94
2018-04-27T00:45:14.276Z,57.85
2018-04-27T00:46:14.306Z,57.65
2018-04-27T00:47:14.322Z,57.75
2018-04-27T00:48:14.344Z,57.94
2018-04-27T00:49:14.359Z,57.56
2018-04-27T00:50:14.397Z,57.37
2018-04-27T00:51:14.392Z,57.56
2018-04-27T00:52:14.431Z,57.56
2018-04-27T00:53:14.434Z,57.56
2018-04-27T00:54:14.468Z,57.46
2018-04-27T00:55:14.476Z,57.75
2018-04-27T00:56:14.495Z,57.94
2018-04-27T00:57:14.510Z,57.56
2018-04-27T00:58:14.531Z,57.85
2018-04-27T00:59:14.559Z,58.14
2018-04-27T01:00:14.564Z,58.23
2018-04-27T01:01:14.590Z,58.23
2018-04-27T01:02:14.608Z,57.94
2018-04-27T01:03:14.626Z,58.14
2018-04-27T01:04:14.657Z,57.94
2018-04-27T01:05:14.665Z,57.94
2018-04-27T01:06:14.682Z,58.14
2018-04-27T01:07:14.700Z,58.23
2018-04-27T01:08:14.721Z,58.33
2018-04-27T01:09:14.744Z,58.23
2018-04-27T01:10:14.764Z,58.33
2018-04-27T01:11:14.785Z,58.42
2018-04-27T01:12:14.799Z,58.52
2018-04-27T01:13:14.816Z,58.42
2018-04-27T01:14:14.838Z,58.33
2018-04-27T01:15:14.861Z,58.23
2018-04-27T01:16:14.878Z,58.33
2018-04-27T01:17:14.893Z,58.42
2018-04-27T01:18:14.917Z,58.62
2018-04-27T01:19:14.938Z,58.62
2018-04-27T01:20:14.953Z,58.52
2018-04-27T01:21:14.981Z,58.62
2018-04-27T01:22:14.993Z,58.52
2018-04-27T01:23:15.006Z,58.52
2018-04-27T01:24:15.034Z,58.81
2018-04-27T01:25:15.059Z,58.72
2018-04-27T01:26:15.073Z,58.62
2018-04-27T01:27:15.087Z,58.72
2018-04-27T01:28:15.106Z,58.42
2018-04-27T01:29:15.138Z,58.72
2018-04-27T01:30:15.153Z,58.62
2018-04-27T01:31:15.159Z,58.62
2018-04-27T01:32:15.189Z,58.52
2018-04-27T01:33:15.208Z,58.52
2018-04-27T01:34:15.221Z,58.52
2018-04-27T01:35:15.242Z,58.52
2018-04-27T01:36:15.259Z,58.42
2018-04-27T01:37:15.281Z,58.14
2018-04-27T01:38:15.305Z,58.33
2018-04-27T01:39:15.319Z,58.33
2018-04-27T01:40:15.337Z,58.62
2018-04-27T01:41:15.351Z,58.23
2018-04-27T01:42:15.373Z,58.23
2018-04-27T01:43:15.398Z,58.52
2018-04-27T01:44:15.407Z,58.04
2018-04-27T01:45:15.433Z,58.33
2018-04-27T01:46:15.452Z,58.33
2018-04-27T01:47:15.468Z,58.33
2018-04-27T01:48:15.499Z,58.23
2018-04-27T01:49:15.506Z,58.33
2018-04-27T01:50:15.530Z,58.42
2018-04-27T01:51:15.549Z,58.81
2018-04-27T01:52:15.564Z,58.42
2018-04-27T01:53:15.587Z,58.42
2018-04-27T01:54:15.604Z,58.42
2018-04-27T01:55:15.623Z,58.33
2018-04-27T01:56:15.639Z,58.33
2018-04-27T01:57:15.668Z,58.33
2018-04-27T01:58:15.687Z,58.33
2018-04-27T01:59:15.705Z,58.33
2018-04-27T02:00:15.717Z,58.33
2018-04-27T02:01:15.743Z,58.81
2018-04-27T02:02:15.765Z,58.42
2018-04-27T02:03:15.777Z,58.23
2018-04-27T02:04:15.793Z,58.52
2018-04-27T02:05:15.807Z,58.42
2018-04-27T02:06:15.835Z,58.42
2018-04-27T02:07:15.857Z,58.42
2018-04-27T02:08:15.872Z,58.62
2018-04-27T02:09:15.892Z,58.42
2018-04-27T02:10:15.913Z,58.62
2018-04-27T02:11:15.935Z,58.42
2018-04-27T02:12:15.954Z,58.42
2018-04-27T02:13:15.971Z,58.42
2018-04-27T02:14:15.989Z,58.42
2018-04-27T02:15:16.001Z,58.42
2018-04-27T02:16:16.028Z,58.81
2018-04-27T02:17:16.076Z,58.52
2018-04-27T02:18:16.067Z,58.72
2018-04-27T02:19:16.081Z,58.42
2018-04-27T02:20:16.101Z,58.42
2018-04-27T02:21:16.123Z,58.33
2018-04-27T02:22:16.145Z,58.52
2018-04-27T02:23:16.157Z,58.52
2018-04-27T02:24:16.183Z,58.33
2018-04-27T02:25:16.199Z,58.62
2018-04-27T02:26:16.219Z,58.42
2018-04-27T02:27:16.246Z,58.42
2018-04-27T02:28:16.258Z,58.42
2018-04-27T02:29:16.330Z,58.23
2018-04-27T02:30:16.305Z,58.33
2018-04-27T02:31:16.315Z,58.33
2018-04-27T02:32:16.340Z,58.42
2018-04-27T02:33:16.359Z,58.52
2018-04-27T02:34:16.392Z,58.33
2018-04-27T02:35:16.397Z,58.33
2018-04-27T02:36:16.407Z,58.33
2018-04-27T02:37:16.417Z,58.42
2018-04-27T02:38:16.455Z,58.42
2018-04-27T02:39:16.466Z,58.33
2018-04-27T02:40:16.495Z,58.33
2018-04-27T02:41:16.503Z,58.23
2018-04-27T02:42:16.523Z,58.52
2018-04-27T02:43:16.542Z,58.72
2018-04-27T02:44:16.561Z,58.33
2018-04-27T02:45:16.579Z,58.23
2018-04-27T02:46:16.598Z,58.52
2018-04-27T02:47:16.618Z,58.52
2018-04-27T02:48:16.639Z,58.33
2018-04-27T02:49:16.664Z,58.33
2018-04-27T02:50:16.678Z,58.33
2018-04-27T02:51:16.704Z,58.62
2018-04-27T02:52:16.712Z,58.33
2018-04-27T02:53:16.732Z,58.33
2018-04-27T02:54:16.747Z,58.52
2018-04-27T02:55:16.776Z,58.33
2018-04-27T02:56:16.792Z,58.42
2018-04-27T02:57:16.859Z,58.62
2018-04-27T02:58:16.833Z,58.52
2018-04-27T02:59:16.850Z,58.62
2018-04-27T03:00:16.902Z,58.14
2018-04-27T03:01:16.880Z,58.42
2018-04-27T03:02:16.907Z,58.81
2018-04-27T03:03:16.942Z,58.33
2018-04-27T03:04:16.943Z,58.81
2018-04-27T03:05:16.964Z,58.52
2018-04-27T03:06:17.016Z,58.62
2018-04-27T03:07:17.003Z,58.42
2018-04-27T03:08:17.019Z,58.62
2018-04-27T03:09:17.039Z,58.33
2018-04-27T03:10:17.059Z,58.52
2018-04-27T03:11:17.074Z,58.52
2018-04-27T03:12:17.103Z,58.62
2018-04-27T03:13:17.112Z,58.42
2018-04-27T03:14:17.126Z,58.72
2018-04-27T03:15:17.156Z,58.33
2018-04-27T03:16:17.172Z,58.62
2018-04-27T03:17:17.192Z,58.72
2018-04-27T03:18:17.204Z,58.33
2018-04-27T03:19:17.228Z,58.72
2018-04-27T03:20:17.251Z,58.42
2018-04-27T03:21:17.267Z,58.42
2018-04-27T03:22:17.292Z,58.42
2018-04-27T03:23:17.359Z,58.52
2018-04-27T03:24:17.324Z,58.33
2018-04-27T03:25:17.344Z,58.33
2018-04-27T03:26:17.360Z,58.33
2018-04-27T03:27:17.373Z,58.33
2018-04-27T03:28:17.407Z,58.62
2018-04-27T03:29:17.423Z,58.62
2018-04-27T03:30:17.440Z,58.52
2018-04-27T03:31:17.453Z,58.42
2018-04-27T03:32:17.476Z,58.42
2018-04-27T03:33:17.494Z,58.52
2018-04-27T03:34:17.537Z,58.42
2018-04-27T03:35:17.532Z,58.62
2018-04-27T03:36:17.556Z,58.52
2018-04-27T03:37:17.573Z,58.72
2018-04-27T03:38:17.592Z,58.52
2018-04-27T03:39:17.609Z,58.62
2018-04-27T03:40:17.633Z,58.33
2018-04-27T03:41:17.659Z,58.33
2018-04-27T03:42:17.677Z,58.52
2018-04-27T03:43:17.694Z,58.52
2018-04-27T03:44:17.698Z,58.33
2018-04-27T03:45:17.806Z,58.33
2018-04-27T03:46:17.748Z,58.33
2018-04-27T03:47:17.766Z,58.33
2018-04-27T03:48:17.772Z,58.23
2018-04-27T03:49:17.799Z,58.33
2018-04-27T03:50:17.828Z,58.52
2018-04-27T03:51:17.838Z,58.52
2018-04-27T03:52:17.850Z,58.42
2018-04-27T03:53:17.877Z,58.42
2018-04-27T03:54:17.902Z,58.42
2018-04-27T03:55:17.917Z,58.52
2018-04-27T03:56:17.930Z,58.33
2018-04-27T03:57:17.950Z,58.72
2018-04-27T03:58:17.982Z,58.42
2018-04-27T03:59:18.006Z,58.62
2018-04-27T04:00:18.009Z,58.42
2018-04-27T04:01:18.049Z,58.52
2018-04-27T04:02:18.051Z,58.33
2018-04-27T04:03:18.068Z,58.62
2018-04-27T04:04:18.127Z,58.33
2018-04-27T04:05:18.100Z,58.81
2018-04-27T04:06:18.136Z,58.62
2018-04-27T04:07:18.147Z,58.52
2018-04-27T04:08:18.155Z,58.42
2018-04-27T04:09:18.178Z,58.52
2018-04-27T04:10:18.202Z,58.52
2018-04-27T04:11:18.219Z,58.52
2018-04-27T04:12:18.243Z,58.62
2018-04-27T04:13:18.259Z,58.62
2018-04-27T04:14:18.270Z,58.52
2018-04-27T04:15:18.302Z,58.72
2018-04-27T04:16:18.346Z,58.72
2018-04-27T04:17:18.328Z,58.91
2018-04-27T04:18:18.366Z,59.39
2018-04-27T04:19:18.374Z,58.91
2018-04-27T04:20:18.396Z,59.10
2018-04-27T04:21:18.415Z,58.91
2018-04-27T04:22:18.448Z,59.36
2018-04-27T04:23:18.452Z,58.91
2018-04-27T04:24:18.467Z,58.72
2018-04-27T04:25:18.488Z,58.72
2018-04-27T04:26:18.533Z,58.69
2018-04-27T04:27:18.529Z,58.88
2018-04-27T04:28:18.542Z,59.30
2018-04-27T04:29:18.562Z,59.39
2018-04-27T04:30:18.576Z,59.00
2018-04-27T04:31:18.607Z,59.10
2018-04-27T04:32:18.660Z,59.48
2018-04-27T04:33:18.651Z,59.10
2018-04-27T04:34:18.657Z,59.10
2018-04-27T04:35:18.678Z,59.00
2018-04-27T04:36:18.698Z,58.88
2018-04-27T04:37:18.718Z,58.91
2018-04-27T04:38:18.826Z,59.39
2018-04-27T04:39:18.756Z,58.97
2018-04-27T04:40:18.772Z,59.07
2018-04-27T04:41:18.792Z,59.39
2018-04-27T04:42:18.806Z,59.00
2018-04-27T04:43:18.818Z,59.10
2018-04-27T04:44:18.853Z,58.91
2018-04-27T04:45:18.875Z,59.30
2018-04-27T04:46:18.893Z,58.91
2018-04-27T04:47:18.901Z,59.30
2018-04-27T04:48:18.928Z,58.88
2018-04-27T04:49:18.944Z,58.91
2018-04-27T04:50:18.968Z,59.10
2018-04-27T04:51:18.977Z,59.10
2018-04-27T04:52:19.043Z,59.39
2018-04-27T04:53:19.016Z,59.10
2018-04-27T04:54:19.038Z,59.30
2018-04-27T04:55:19.057Z,59.20
2018-04-27T04:56:19.155Z,59.20
2018-04-27T04:57:19.095Z,59.00
2018-04-27T04:58:19.120Z,59.17
2018-04-27T04:59:19.129Z,59.27
2018-04-27T05:00:19.171Z,59.17
2018-04-27T05:01:19.177Z,58.97
2018-04-27T05:02:19.195Z,59.00
2018-04-27T05:03:19.206Z,59.17
2018-04-27T05:04:19.225Z,58.97
2018-04-27T05:05:19.254Z,58.97
2018-04-27T05:06:19.269Z,59.10
2018-04-27T05:07:19.280Z,59.00
2018-04-27T05:08:19.344Z,59.00
2018-04-27T05:09:19.324Z,59.07
2018-04-27T05:10:19.365Z,59.20
2018-04-27T05:11:19.366Z,59.00
2018-04-27T05:12:19.380Z,59.36
2018-04-27T05:13:19.401Z,59.20
2018-04-27T05:14:19.423Z,59.00
2018-04-27T05:15:19.439Z,59.20
2018-04-27T05:16:19.460Z,59.10
2018-04-27T05:17:19.477Z,58.72
2018-04-27T05:18:19.496Z,58.52
2018-04-27T05:19:19.519Z,58.30
2018-04-27T05:20:19.533Z,58.62
2018-04-27T05:21:19.542Z,58.52
2018-04-27T05:22:19.568Z,58.62
2018-04-27T05:23:19.589Z,58.11
2018-04-27T05:24:19.663Z,58.23
2018-04-27T05:25:19.628Z,58.11
2018-04-27T05:26:19.647Z,58.01
2018-04-27T05:27:19.722Z,57.65
2018-04-27T05:28:19.685Z,57.94
2018-04-27T05:29:19.702Z,57.75
2018-04-27T05:30:19.721Z,57.85
2018-04-27T05:31:19.743Z,57.94
2018-04-27T05:32:19.758Z,57.92
2018-04-27T05:33:19.772Z,57.85
2018-04-27T05:34:19.802Z,57.75
2018-04-27T05:35:19.826Z,57.46
2018-04-27T05:36:19.835Z,56.76
2018-04-27T05:37:19.859Z,57.43
2018-04-27T05:38:19.882Z,57.24
2018-04-27T05:39:19.888Z,57.14
2018-04-27T05:40:19.924Z,57.53
2018-04-27T05:41:19.941Z,57.53
2018-04-27T05:42:19.952Z,57.53
2018-04-27T05:43:19.971Z,56.66
2018-04-27T05:44:19.985Z,56.40
2018-04-27T05:45:20.014Z,56.66
2018-04-27T05:46:20.020Z,56.57
2018-04-27T05:47:20.047Z,57.24
2018-04-27T05:48:20.091Z,57.05
2018-04-27T05:49:20.082Z,57.05
2018-04-27T05:50:20.104Z,56.69
2018-04-27T05:51:20.126Z,57.24
2018-04-27T05:52:20.140Z,56.18
2018-04-27T05:53:20.165Z,56.47
2018-04-27T05:54:20.178Z,56.85
2018-04-27T05:55:20.196Z,56.57
2018-04-27T05:56:20.214Z,56.47
2018-04-27T05:57:20.225Z,56.59
2018-04-27T05:58:20.253Z,56.30
2018-04-27T05:59:20.265Z,56.21
2018-04-27T06:00:20.312Z,56.18
2018-04-27T06:01:20.314Z,56.09
2018-04-27T06:02:20.332Z,57.05
2018-04-27T06:03:20.345Z,56.09
2018-04-27T06:04:20.370Z,56.57
2018-04-27T06:05:20.387Z,57.07
2018-04-27T06:06:20.410Z,57.05
2018-04-27T06:07:20.427Z,57.05
2018-04-27T06:08:20.517Z,56.37
2018-04-27T06:09:20.468Z,56.37
2018-04-27T06:10:20.482Z,56.49
2018-04-27T06:11:20.515Z,56.40
2018-04-27T06:12:20.520Z,56.57
2018-04-27T06:13:20.537Z,56.27
2018-04-27T06:14:20.558Z,56.66
2018-04-27T06:15:20.574Z,56.57
2018-04-27T06:16:20.594Z,56.27
2018-04-27T06:17:20.618Z,56.57
2018-04-27T06:18:20.632Z,56.47
2018-04-27T06:19:20.651Z,56.09
2018-04-27T06:20:20.671Z,56.18
2018-04-27T06:21:20.685Z,56.18
2018-04-27T06:22:20.708Z,56.76
2018-04-27T06:23:20.720Z,56.47
2018-04-27T06:24:20.756Z,55.70
2018-04-27T06:25:20.768Z,56.66
2018-04-27T06:26:20.824Z,56.57
2018-04-27T06:27:20.824Z,56.66
2018-04-27T06:28:20.832Z,55.70
2018-04-27T06:29:20.844Z,56.79
2018-04-27T06:30:20.855Z,55.99
2018-04-27T06:31:20.881Z,56.40
2018-04-27T06:32:20.909Z,56.18
2018-04-27T06:33:20.934Z,56.37
2018-04-27T06:34:20.938Z,56.18
2018-04-27T06:35:20.955Z,56.37
2018-04-27T06:36:20.974Z,56.57
2018-04-27T06:37:21.034Z,56.66
2018-04-27T06:38:21.010Z,56.57
2018-04-27T06:39:21.080Z,56.37
2018-04-27T06:40:21.055Z,56.47
2018-04-27T06:41:21.071Z,56.66
2018-04-27T06:42:21.092Z,56.57
2018-04-27T06:43:21.158Z,56.47
2018-04-27T06:44:21.126Z,56.57
2018-04-27T06:45:21.147Z,56.57
2018-04-27T06:46:21.165Z,56.66
2018-04-27T06:47:21.176Z,56.09
2018-04-27T06:48:21.202Z,56.37
2018-04-27T06:49:21.223Z,55.89
2018-04-27T06:50:21.239Z,56.09
2018-04-27T06:51:21.256Z,56.47
2018-04-27T06:52:21.272Z,56.27
2018-04-27T06:53:21.304Z,56.18
2018-04-27T06:54:21.303Z,56.18
2018-04-27T06:55:21.336Z,56.27
2018-04-27T06:56:21.350Z,56.18
2018-04-27T06:57:21.372Z,56.18
2018-04-27T06:58:21.389Z,55.99
2018-04-27T06:59:21.415Z,56.27
2018-04-27T07:00:21.427Z,56.57
2018-04-27T07:01:21.445Z,55.99
2018-04-27T07:02:21.497Z,56.09
2018-04-27T07:03:21.492Z,56.09
2018-04-27T07:04:21.494Z,56.09
2018-04-27T07:05:21.585Z,56.18
2018-04-27T07:06:21.542Z,56.09
2018-04-27T07:07:21.560Z,55.89
2018-04-27T07:08:21.614Z,56.09
2018-04-27T07:09:21.597Z,55.70
2018-04-27T07:10:21.625Z,55.89
2018-04-27T07:11:21.639Z,55.79
2018-04-27T07:12:21.651Z,55.89
2018-04-27T07:13:21.670Z,55.70
2018-04-27T07:14:21.691Z,55.99
2018-04-27T07:15:21.741Z,56.18
2018-04-27T07:16:21.731Z,55.89
2018-04-27T07:17:21.754Z,55.99
2018-04-27T07:18:21.782Z,55.99
2018-04-27T07:19:21.798Z,55.99
2018-04-27T07:20:21.803Z,56.18
2018-04-27T07:21:21.819Z,55.99
2018-04-27T07:22:21.848Z,56.09
2018-04-27T07:23:21.865Z,56.09
2018-04-27T07:24:21.880Z,55.99
2018-04-27T07:25:21.900Z,56.09
2018-04-27T07:26:21.919Z,56.09
2018-04-27T07:27:21.929Z,56.18
2018-04-27T07:28:21.953Z,56.09
2018-04-27T07:29:21.973Z,56.18
2018-04-27T07:30:21.997Z,56.09
2018-04-27T07:31:22.009Z,56.09
2018-04-27T07:32:22.031Z,55.99
2018-04-27T07:33:22.046Z,55.99
2018-04-27T07:34:22.072Z,55.79
2018-04-27T07:35:22.090Z,55.79
2018-04-27T07:36:22.161Z,55.89
2018-04-27T07:37:22.123Z,55.89
2018-04-27T07:38:22.145Z,55.60
2018-04-27T07:39:22.170Z,55.60
2018-04-27T07:40:22.189Z,55.51
2018-04-27T07:41:22.201Z,55.51
2018-04-27T07:42:22.227Z,55.51
2018-04-27T07:43:22.245Z,55.70
2018-04-27T07:44:22.266Z,55.12
2018-04-27T07:45:22.350Z,55.70
2018-04-27T07:46:22.298Z,55.70
2018-04-27T07:47:22.306Z,55.70
2018-04-27T07:48:22.333Z,55.22
2018-04-27T07:49:22.357Z,55.31
2018-04-27T07:50:22.368Z,55.79
2018-04-27T07:51:22.384Z,55.41
2018-04-27T07:52:22.417Z,55.51
2018-04-27T07:53:22.425Z,55.31
2018-04-27T07:54:22.445Z,55.51
2018-04-27T07:55:22.492Z,55.51
2018-04-27T07:56:22.486Z,55.31
2018-04-27T07:57:22.501Z,55.22
2018-04-27T07:58:22.526Z,55.12
2018-04-27T07:59:22.540Z,55.22
2018-04-27T08:00:22.559Z,55.22
2018-04-27T08:01:22.583Z,55.22
2018-04-27T08:02:22.627Z,55.22
2018-04-27T08:03:22.614Z,55.41
2018-04-27T08:04:22.642Z,55.41
2018-04-27T08:05:22.720Z,55.70
2018-04-27T08:06:22.681Z,55.70
2018-04-27T08:07:22.697Z,55.51
2018-04-27T08:08:22.711Z,55.51
2018-04-27T08:09:22.736Z,55.51
2018-04-27T08:10:22.775Z,55.60
2018-04-27T08:11:22.819Z,55.51
2018-04-27T08:12:22.779Z,55.31
2018-04-27T08:13:22.804Z,55.31
2018-04-27T08:14:22.825Z,55.41
2018-04-27T08:15:22.842Z,55.41
2018-04-27T08:16:22.862Z,55.22
2018-04-27T08:17:22.879Z,55.12
2018-04-27T08:18:22.899Z,55.41
2018-04-27T08:19:22.912Z,55.41
2018-04-27T08:20:22.959Z,55.31
2018-04-27T08:21:22.958Z,55.41
2018-04-27T08:22:22.975Z,55.31
2018-04-27T08:23:22.995Z,55.22
2018-04-27T08:24:23.012Z,55.31
2018-04-27T08:25:23.035Z,55.41
2018-04-27T08:26:23.053Z,55.31
2018-04-27T08:27:23.069Z,55.41
2018-04-27T08:28:23.088Z,55.22
2018-04-27T08:29:23.110Z,55.41
2018-04-27T08:30:23.133Z,55.31
2018-04-27T08:31:23.142Z,55.31
2018-04-27T08:32:23.245Z,55.12
2018-04-27T08:33:23.192Z,55.12
2018-04-27T08:34:23.223Z,55.22
2018-04-27T08:35:23.225Z,54.93
2018-04-27T08:36:23.262Z,55.12
2018-04-27T08:37:23.258Z,54.83
2018-04-27T08:38:23.280Z,55.22
2018-04-27T08:39:23.299Z,54.83
2018-04-27T08:40:23.318Z,55.12
2018-04-27T08:41:23.333Z,55.12
2018-04-27T08:42:23.355Z,55.02
2018-04-27T08:43:23.383Z,55.12
2018-04-27T08:44:23.395Z,54.83
2018-04-27T08:45:23.414Z,55.12
2018-04-27T08:46:23.443Z,55.12
2018-04-27T08:47:23.511Z,55.12
2018-04-27T08:48:23.470Z,54.93
2018-04-27T08:49:23.488Z,55.12
2018-04-27T08:50:23.607Z,55.02
2018-04-27T08:51:23.537Z,54.83
2018-04-27T08:52:23.548Z,54.74
2018-04-27T08:53:23.552Z,54.64
2018-04-27T08:54:23.581Z,54.83
2018-04-27T08:55:23.593Z,54.83
2018-04-27T08:56:23.617Z,54.83
2018-04-27T08:57:23.634Z,54.83
2018-04-27T08:58:23.667Z,54.83
2018-04-27T08:59:23.673Z,54.64
2018-04-27T09:00:23.689Z,54.83
2018-04-27T09:01:23.717Z,54.64
2018-04-27T09:02:23.744Z,54.74
2018-04-27T09:03:23.742Z,54.74
2018-04-27T09:04:23.836Z,54.74
2018-04-27T09:05:23.783Z,54.74
2018-04-27T09:06:23.881Z,54.74
2018-04-27T09:07:23.829Z,54.83
2018-04-27T09:08:23.870Z,54.74
2018-04-27T09:09:23.864Z,54.74
2018-04-27T09:10:23.891Z,54.83
2018-04-27T09:11:23.892Z,54.74
2018-04-27T09:12:23.926Z,54.74
2018-04-27T09:13:23.943Z,54.74
2018-04-27T09:14:23.967Z,54.74
2018-04-27T09:15:23.976Z,54.74
2018-04-27T09:16:24.011Z,54.93
2018-04-27T09:17:24.020Z,54.74
2018-04-27T09:18:24.037Z,54.74
2018-04-27T09:19:24.048Z,54.74
2018-04-27T09:20:24.075Z,54.83
2018-04-27T09:21:24.096Z,54.83
2018-04-27T09:22:24.114Z,54.74
2018-04-27T09:23:24.129Z,54.83
2018-04-27T09:24:24.152Z,54.74
2018-04-27T09:25:24.194Z,54.74
2018-04-27T09:26:24.187Z,54.74
2018-04-27T09:27:24.209Z,54.64
2018-04-27T09:28:24.223Z,54.83
2018-04-27T09:29:24.246Z,54.74
2018-04-27T09:30:24.259Z,54.83
2018-04-27T09:31:24.277Z,54.74
2018-04-27T09:32:24.310Z,54.74
2018-04-27T09:33:24.307Z,54.93
2018-04-27T09:34:24.362Z,54.64
2018-04-27T09:35:24.358Z,54.93
2018-04-27T09:36:24.476Z,54.83
2018-04-27T09:37:24.387Z,54.74
2018-04-27T09:38:24.414Z,54.74
2018-04-27T09:39:24.446Z,54.74
2018-04-27T09:40:24.451Z,54.64
2018-04-27T09:41:24.475Z,54.64
2018-04-27T09:42:24.493Z,54.64
2018-04-27T09:43:24.501Z,55.02
2018-04-27T09:44:24.524Z,54.54
2018-04-27T09:45:24.542Z,55.12
2018-04-27T09:46:24.564Z,55.12
2018-04-27T09:47:24.580Z,54.93
2018-04-27T09:48:24.605Z,54.93
2018-04-27T09:49:24.623Z,54.93
2018-04-27T09:50:24.642Z,54.93
2018-04-27T09:51:24.657Z,54.93
2018-04-27T09:52:24.675Z,54.93
2018-04-27T09:53:24.687Z,54.93
2018-04-27T09:54:24.715Z,54.93
2018-04-27T09:55:24.728Z,54.93
2018-04-27T09:56:24.751Z,54.93
2018-04-27T09:57:24.809Z,54.93
2018-04-27T09:58:24.790Z,54.93
2018-04-27T09:59:24.805Z,54.93
2018-04-27T10:00:24.825Z,54.93
2018-04-27T10:01:24.836Z,54.93
2018-04-27T10:02:24.855Z,55.02
2018-04-27T10:03:24.883Z,54.93
2018-04-27T10:04:24.897Z,54.93
2018-04-27T10:05:24.922Z,54.93
2018-04-27T10:06:24.941Z,54.83
2018-04-27T10:07:24.957Z,54.93
2018-04-27T10:08:24.974Z,54.93
2018-04-27T10:09:24.996Z,54.83
2018-04-27T10:10:25.011Z,54.93
2018-04-27T10:11:25.028Z,54.93
2018-04-27T10:12:25.052Z,55.02
2018-04-27T10:13:25.070Z,55.12
2018-04-27T10:14:25.093Z,54.93
2018-04-27T10:15:25.107Z,54.93
2018-04-27T10:16:25.128Z,54.93
2018-04-27T10:17:25.147Z,54.93
2018-04-27T10:18:25.156Z,54.83
2018-04-27T10:19:25.179Z,54.93
2018-04-27T10:20:25.278Z,54.93
2018-04-27T10:21:25.213Z,54.93
2018-04-27T10:22:25.243Z,54.83
2018-04-27T10:23:25.259Z,55.22
2018-04-27T10:24:25.285Z,54.74
2018-04-27T10:25:25.293Z,55.12
2018-04-27T10:26:25.328Z,55.12
2018-04-27T10:27:25.335Z,55.22
2018-04-27T10:28:25.345Z,54.93
2018-04-27T10:29:25.385Z,55.12
2018-04-27T10:30:25.394Z,55.12
2018-04-27T10:31:25.402Z,55.22
2018-04-27T10:32:25.559Z,55.22
2018-04-27T10:33:25.451Z,55.22
2018-04-27T10:34:25.473Z,54.83
2018-04-27T10:35:25.482Z,54.83
2018-04-27T10:36:25.503Z,54.64
2018-04-27T10:37:25.523Z,54.83
2018-04-27T10:38:25.541Z,54.64
2018-04-27T10:39:25.581Z,55.02
2018-04-27T10:40:25.576Z,54.74
2018-04-27T10:41:25.592Z,55.02
2018-04-27T10:42:25.618Z,54.74
2018-04-27T10:43:25.632Z,54.44
2018-04-27T10:44:25.650Z,54.83
2018-04-27T10:45:25.760Z,54.16
2018-04-27T10:46:25.684Z,54.74
2018-04-27T10:47:25.715Z,54.16
2018-04-27T10:48:25.732Z,54.44
2018-04-27T10:49:25.754Z,54.44
2018-04-27T10:50:25.778Z,54.06
2018-04-27T10:51:25.855Z,54.54
2018-04-27T10:52:25.822Z,54.06
2018-04-27T10:53:25.815Z,54.44
2018-04-27T10:54:25.846Z,54.06
2018-04-27T10:55:25.859Z,54.54
2018-04-27T10:56:25.876Z,54.54
2018-04-27T10:57:25.894Z,54.25
2018-04-27T10:58:25.916Z,54.44
2018-04-27T10:59:25.934Z,54.25
2018-04-27T11:00:25.948Z,54.44
2018-04-27T11:01:25.993Z,54.25
2018-04-27T11:02:25.991Z,54.44
2018-04-27T11:03:26.094Z,54.44
2018-04-27T11:04:26.037Z,54.44
2018-04-27T11:05:26.054Z,54.44
2018-04-27T11:06:26.066Z,54.44
2018-04-27T11:07:26.091Z,54.44
2018-04-27T11:08:26.114Z,54.54
2018-04-27T11:09:26.137Z,54.44
2018-04-27T11:10:26.133Z,54.74
2018-04-27T11:11:26.163Z,54.74
2018-04-27T11:12:26.182Z,54.54
2018-04-27T11:13:26.204Z,54.64
2018-04-27T11:14:26.225Z,54.64
2018-04-27T11:15:26.234Z,54.93
2018-04-27T11:16:26.258Z,54.44
2018-04-27T11:17:26.274Z,54.44
2018-04-27T11:18:26.292Z,54.93
2018-04-27T11:19:26.304Z,54.93
2018-04-27T11:20:26.329Z,54.64
2018-04-27T11:21:26.351Z,54.64
2018-04-27T11:22:26.373Z,54.25
2018-04-27T11:23:26.388Z,54.06
2018-04-27T11:24:26.408Z,54.06
2018-04-27T11:25:26.441Z,54.35
2018-04-27T11:26:26.435Z,54.25
2018-04-27T11:27:26.469Z,54.16
2018-04-27T11:28:26.475Z,54.16
2018-04-27T11:29:26.504Z,54.25
2018-04-27T11:30:26.520Z,53.96
2018-04-27T11:31:26.539Z,54.16
2018-04-27T11:32:26.559Z,54.16
2018-04-27T11:33:26.576Z,53.87
2018-04-27T11:34:26.592Z,54.35
2018-04-27T11:35:26.619Z,54.16
2018-04-27T11:36:26.624Z,53.87
2018-04-27T11:37:26.652Z,54.06
2018-04-27T11:38:26.678Z,54.16
2018-04-27T11:39:26.705Z,54.06
2018-04-27T11:40:26.708Z,53.96
2018-04-27T11:41:26.745Z,53.96
2018-04-27T11:42:26.750Z,53.87
2018-04-27T11:43:26.779Z,53.77
2018-04-27T11:44:26.809Z,53.96
2018-04-27T11:45:26.796Z,53.87
2018-04-27T11:46:26.821Z,54.06
2018-04-27T11:47:26.841Z,53.96
2018-04-27T11:48:26.859Z,53.77
2018-04-27T11:49:26.954Z,53.87
2018-04-27T11:50:26.901Z,53.96
2018-04-27T11:51:26.912Z,53.87
2018-04-27T11:52:26.926Z,53.77
2018-04-27T11:53:26.971Z,53.77
2018-04-27T11:54:26.984Z,53.87
2018-04-27T11:55:27.001Z,53.87
2018-04-27T11:56:27.014Z,53.96
2018-04-27T11:57:27.027Z,53.77
2018-04-27T11:58:27.042Z,54.06
2018-04-27T11:59:27.067Z,53.96
2018-04-27T12:00:27.084Z,53.77
2018-04-27T12:01:27.097Z,53.77
2018-04-27T12:02:27.126Z,54.16
2018-04-27T12:03:27.149Z,53.77
2018-04-27T12:04:27.165Z,54.06
2018-04-27T12:05:27.180Z,53.87
2018-04-27T12:06:27.200Z,54.16
2018-04-27T12:07:27.217Z,54.06
2018-04-27T12:08:27.228Z,53.87
2018-04-27T12:09:27.267Z,53.87
2018-04-27T12:10:27.272Z,54.16
2018-04-27T12:11:27.294Z,53.87
2018-04-27T12:12:27.311Z,53.87
2018-04-27T12:13:27.324Z,54.06
2018-04-27T12:14:27.342Z,54.06
2018-04-27T12:15:27.378Z,53.96
2018-04-27T12:16:27.409Z,54.06
2018-04-27T12:17:27.408Z,54.06
2018-04-27T12:18:27.422Z,54.06
2018-04-27T12:19:27.443Z,53.96
2018-04-27T12:20:27.455Z,54.16
2018-04-27T12:21:27.477Z,54.16
2018-04-27T12:22:27.499Z,53.87
2018-04-27T12:23:27.525Z,54.16
2018-04-27T12:24:27.546Z,54.16
2018-04-27T12:25:27.615Z,53.96
2018-04-27T12:26:27.572Z,53.96
2018-04-27T12:27:27.591Z,53.87
2018-04-27T12:28:27.607Z,53.87
2018-04-27T12:29:27.622Z,53.96
2018-04-27T12:30:27.652Z,54.06
2018-04-27T12:31:27.701Z,54.16
2018-04-27T12:32:27.687Z,54.16
2018-04-27T12:33:27.700Z,54.06
2018-04-27T12:34:27.729Z,54.16
2018-04-27T12:35:27.738Z,54.16
2018-04-27T12:36:27.761Z,54.25
2018-04-27T12:37:27.782Z,54.06
2018-04-27T12:38:27.803Z,54.25
2018-04-27T12:39:27.816Z,54.06
2018-04-27T12:40:27.842Z,54.35
2018-04-27T12:41:27.853Z,54.06
2018-04-27T12:42:27.874Z,54.25
2018-04-27T12:43:27.893Z,54.25
2018-04-27T12:44:27.927Z,54.25
2018-04-27T12:45:27.936Z,54.25
2018-04-27T12:46:27.944Z,54.25
2018-04-27T12:47:27.974Z,54.25
2018-04-27T12:48:27.988Z,54.25
2018-04-27T12:49:28.019Z,54.25
2018-04-27T12:50:28.026Z,54.16
2018-04-27T12:51:28.039Z,54.16
2018-04-27T12:52:28.068Z,54.06